Hartland, Vermont
Current Conditions -  °F | °C
As of 12:53 PM on Friday 21 Nov 2014 (Local Time) from KLEB Reporting Station
Overcast Overcast  
Wind Chill: 20°   Ceiling: 4300
Heat Index: 30°   Visibility: 10mi
Dew Point: 12°   Wind: 14mph
Humidity: 47%   Direction: 350°N
Pressure: 30.14"   Gusts: 21mph
Location:  43.54°N, 72.4°W
Report Text: KLEB 211753Z 35012G18KT 10SM BKN043 OVC050 M01/M11 A3014 RMK AO2 SLP218 60000 T10111111 11006 21067 51016
Loading
Personal Weather Stations






























Interactive Weather Map New forecast layout! Learn more

10-Day Weather Forecast

Advertisements
Track Severe Weather on mobile